Time;durP1;ratioP1;P1;durP2;ratioP2;P2;SDS_P1;SDS_P2;PMS_P1;PMS_P2;Temp;Humidity;BMP_temperature;BMP_pressure;BME280_temperature;BME280_humidity;BME280_pressure;Samples;Min_cycle;Max_cycle;Signal;HPM_P1;HPM_P2
2021/03/15 00:00:36;;;;;;;2.03;0.20;;;14.70;55.50;;;;;;5094355;28;20071;-77
2021/03/15 00:03:02;;;;;;;0.95;0.10;;;14.70;55.50;;;;;;5094695;28;20048;-76
2021/03/15 00:05:28;;;;;;;1.30;0.25;;;14.70;55.50;;;;;;5095130;28;20043;-75
2021/03/15 00:07:54;;;;;;;0.93;0.10;;;14.70;55.50;;;;;;5095576;28;20351;-75
2021/03/15 00:10:20;;;;;;;1.40;0.15;;;14.60;55.40;;;;;;5095034;28;20044;-77
2021/03/15 00:12:46;;;;;;;2.33;0.30;;;14.60;55.60;;;;;;5095362;28;20048;-77
2021/03/15 00:15:15;;;;;;;1.83;0.60;;;14.60;55.60;;;;;;5077831;28;20455;-76
2021/03/15 00:17:41;;;;;;;1.38;0.20;;;14.60;55.60;;;;;;5095006;28;20032;-75
2021/03/15 00:20:11;;;;;;;1.50;0.43;;;14.60;55.60;;;;;;5077010;28;20047;-74
2021/03/15 00:22:37;;;;;;;2.95;0.40;;;14.60;55.50;;;;;;5095422;28;20036;-76
2021/03/15 00:25:05;;;;;;;3.67;0.20;;;14.60;55.50;;;;;;5077855;28;20127;-76
2021/03/15 00:27:31;;;;;;;1.48;0.20;;;14.60;55.60;;;;;;5089387;28;20044;-75
2021/03/15 00:29:57;;;;;;;1.63;0.20;;;14.50;55.60;;;;;;5095492;28;20485;-75
2021/03/15 00:32:23;;;;;;;0.82;0.20;;;14.60;55.60;;;;;;5094727;28;20032;-76
2021/03/15 00:34:48;;;;;;;1.92;0.22;;;14.50;55.50;;;;;;5094268;28;20109;-77
2021/03/15 00:37:14;;;;;;;1.98;0.15;;;14.50;55.60;;;;;;5095138;28;20454;-75
2021/03/15 00:39:40;;;;;;;2.35;0.30;;;14.50;55.70;;;;;;5095152;28;20063;-75
2021/03/15 00:42:06;;;;;;;1.50;0.30;;;14.50;55.60;;;;;;5095485;28;20047;-77
2021/03/15 00:44:33;;;;;;;1.73;0.20;;;14.50;55.70;;;;;;5094946;28;20056;-75
2021/03/15 00:46:58;;;;;;;2.85;0.30;;;14.50;55.80;;;;;;5095139;28;20051;-75
2021/03/15 00:49:24;;;;;;;2.35;0.40;;;14.50;55.80;;;;;;5094412;28;20358;-77
2021/03/15 00:51:50;;;;;;;4.03;0.45;;;14.50;55.80;;;;;;5093464;28;20308;-76
2021/03/15 00:54:16;;;;;;;2.45;0.55;;;14.50;55.90;;;;;;5094591;28;20071;-75
2021/03/15 00:56:42;;;;;;;3.00;0.52;;;14.50;55.90;;;;;;5095704;28;20044;-77
2021/03/15 00:59:08;;;;;;;3.10;0.47;;;14.50;55.90;;;;;;5094345;28;20634;-75
2021/03/15 01:01:34;;;;;;;2.75;0.43;;;14.50;56.00;;;;;;5094304;28;20055;-75
2021/03/15 01:03:59;;;;;;;3.92;0.77;;;14.40;56.00;;;;;;5095110;28;20040;-76
2021/03/15 01:06:25;;;;;;;2.72;0.60;;;14.40;56.10;;;;;;5094967;28;20343;-75
2021/03/15 01:08:51;;;;;;;3.20;0.60;;;14.40;56.00;;;;;;5094248;28;20035;-76
2021/03/15 01:11:17;;;;;;;3.40;0.80;;;14.40;56.10;;;;;;5095534;28;20433;-76
2021/03/15 01:13:43;;;;;;;4.45;0.63;;;14.40;56.10;;;;;;5098257;28;20036;-75
2021/03/15 01:16:09;;;;;;;4.30;0.52;;;14.40;56.10;;;;;;5098176;28;20089;-75
2021/03/15 01:18:36;;;;;;;5.13;0.95;;;14.40;56.00;;;;;;5097701;28;20051;-78
2021/03/15 01:21:03;;;;;;;4.07;0.65;;;14.40;56.10;;;;;;5098264;28;20487;-75
2021/03/15 01:23:28;;;;;;;6.93;1.20;;;14.40;56.10;;;;;;5098245;28;20032;-75
2021/03/15 01:25:54;;;;;;;5.70;1.45;;;14.40;56.20;;;;;;5098580;28;20105;-76
2021/03/15 01:28:21;;;;;;;5.75;0.98;;;14.30;56.20;;;;;;5098119;28;20336;-75
2021/03/15 01:30:48;;;;;;;4.65;1.08;;;14.40;56.20;;;;;;5098457;28;20388;-76
2021/03/15 01:33:14;;;;;;;5.35;0.93;;;14.40;56.20;;;;;;5097972;28;20104;-76
2021/03/15 01:35:41;;;;;;;7.10;1.15;;;14.30;56.10;;;;;;5097984;28;20447;-76
2021/03/15 01:38:07;;;;;;;8.23;1.40;;;14.30;56.20;;;;;;5097600;28;20067;-76
2021/03/15 01:40:34;;;;;;;5.07;1.17;;;14.30;56.20;;;;;;5098104;28;20114;-75
2021/03/15 01:43:01;;;;;;;5.72;1.02;;;14.30;56.20;;;;;;5097625;28;20429;-75
2021/03/15 01:45:27;;;;;;;6.57;1.65;;;14.30;56.20;;;;;;5097943;28;20048;-76
2021/03/15 01:47:53;;;;;;;5.63;1.17;;;14.30;56.20;;;;;;5097250;28;20051;-75
2021/03/15 01:50:20;;;;;;;6.15;1.60;;;14.30;56.30;;;;;;5097794;28;20127;-76
2021/03/15 01:52:48;;;;;;;6.10;1.40;;;14.30;56.40;;;;;;5097959;28;20039;-78
2021/03/15 01:55:16;;;;;;;8.57;1.70;;;14.30;56.40;;;;;;5098430;28;20044;-76
2021/03/15 01:57:42;;;;;;;8.65;1.73;;;14.30;56.40;;;;;;5097164;28;20036;-76
2021/03/15 02:00:10;;;;;;;10.02;1.67;;;14.30;56.40;;;;;;5097196;28;20052;-76
2021/03/15 02:02:39;;;;;;;8.07;1.50;;;14.30;56.40;;;;;;5097483;28;20040;-75
2021/03/15 02:05:06;;;;;;;7.28;1.58;;;14.30;56.40;;;;;;5097857;28;20339;-74
2021/03/15 02:07:32;;;;;;;8.70;1.63;;;14.30;56.40;;;;;;5097360;28;20069;-75
2021/03/15 02:09:58;;;;;;;10.07;1.88;;;14.30;57.20;;;;;;5097845;28;20044;-75
2021/03/15 02:12:42;;;;;;;7.15;1.38;;;14.30;56.50;;;;;;5097083;28;20032;-76
2021/03/15 02:15:47;;;;;;;8.35;1.90;;;14.30;56.60;;;;;;5096786;28;20036;-75
2021/03/15 02:18:17;;;;;;;7.63;1.95;;;14.30;56.60;;;;;;5097019;28;20438;-76
2021/03/15 02:20:43;;;;;;;5.35;1.35;;;14.30;56.70;;;;;;5096909;28;20050;-76
2021/03/15 02:23:35;;;;;;;6.70;1.15;;;14.20;56.60;;;;;;5097606;28;20032;-75
2021/03/15 02:26:12;;;;;;;10.30;1.60;;;14.20;56.50;;;;;;5097145;28;20166;-77
2021/03/15 02:28:47;;;;;;;8.65;1.52;;;14.30;56.60;;;;;;5088893;28;20047;-76
2021/03/15 02:31:21;;;;;;;9.45;2.03;;;14.20;56.50;;;;;;5096516;28;20031;-77
2021/03/15 02:34:00;;;;;;;6.97;1.23;;;14.20;56.60;;;;;;5096997;28;20040;-76
2021/03/15 02:36:31;;;;;;;9.38;1.80;;;14.20;56.60;;;;;;5097568;28;20376;-76
2021/03/15 02:38:59;;;;;;;4.35;1.17;;;14.20;56.70;;;;;;5097290;28;20071;-74
2021/03/15 02:41:26;;;;;;;9.65;1.83;;;14.20;56.70;;;;;;5096858;28;20043;-75
2021/03/15 02:43:57;;;;;;;10.07;1.77;;;14.20;56.80;;;;;;5097670;28;20430;-77
2021/03/15 02:46:27;;;;;;;7.10;1.20;;;14.20;56.70;;;;;;5096774;28;20062;-76
2021/03/15 02:48:58;;;;;;;10.20;1.80;;;14.20;56.70;;;;;;5096343;28;20036;-76
2021/03/15 02:51:26;;;;;;;9.10;1.88;;;14.20;56.70;;;;;;5096538;28;20067;-76
2021/03/15 02:53:54;;;;;;;7.22;1.88;;;14.20;56.70;;;;;;5096659;28;20363;-76
2021/03/15 02:56:22;;;;;;;7.18;1.63;;;14.20;56.70;;;;;;5096067;28;20047;-76
2021/03/15 02:58:52;;;;;;;5.68;1.95;;;14.20;56.80;;;;;;5096602;28;20048;-75
2021/03/15 03:01:22;;;;;;;5.95;1.48;;;14.20;56.80;;;;;;5095017;28;20055;-76
2021/03/15 03:03:51;;;;;;;5.47;1.35;;;14.20;56.70;;;;;;5096407;28;20044;-77
2021/03/15 03:06:19;;;;;;;7.38;1.50;;;14.20;56.70;;;;;;5096368;28;20086;-74
2021/03/15 03:08:46;;;;;;;6.25;1.38;;;14.20;56.80;;;;;;5096094;28;20059;-76
2021/03/15 03:11:14;;;;;;;8.82;1.52;;;14.20;56.80;;;;;;5095741;28;20486;-75
2021/03/15 03:13:42;;;;;;;8.88;1.50;;;14.20;56.80;;;;;;5095745;28;20424;-79
2021/03/15 03:16:09;;;;;;;6.97;1.50;;;14.20;56.70;;;;;;5096334;28;20040;-76
2021/03/15 03:18:37;;;;;;;6.53;1.20;;;14.20;56.80;;;;;;5096845;28;20044;-75
2021/03/15 03:21:04;;;;;;;8.15;2.15;;;14.20;56.80;;;;;;5095747;28;20085;-76
2021/03/15 03:23:34;;;;;;;8.38;1.38;;;14.20;56.80;;;;;;5095227;28;20048;-75
2021/03/15 03:26:02;;;;;;;6.38;1.30;;;14.20;56.80;;;;;;5095974;28;20454;-76
2021/03/15 03:28:28;;;;;;;9.18;1.83;;;14.10;56.80;;;;;;5077411;28;20046;-76
2021/03/15 03:31:00;;;;;;;8.70;2.15;;;14.10;56.90;;;;;;5095978;28;20040;-76
2021/03/15 03:33:26;;;;;;;10.48;2.00;;;14.10;56.80;;;;;;5096349;28;20040;-75
2021/03/15 03:35:52;;;;;;;7.45;1.58;;;14.10;56.80;;;;;;5094892;28;20050;-77
2021/03/15 03:38:19;;;;;;;7.30;1.85;;;14.10;56.80;;;;;;5095719;28;20051;-76
2021/03/15 03:40:46;;;;;;;9.90;1.77;;;14.10;56.80;;;;;;5095682;28;20080;-75
2021/03/15 03:43:11;;;;;;;13.32;1.58;;;14.10;56.90;;;;;;5096121;28;20043;-76
2021/03/15 03:45:37;;;;;;;7.72;2.03;;;14.10;56.80;;;;;;5095519;28;20051;-76
2021/03/15 03:48:04;;;;;;;5.95;1.67;;;14.10;56.80;;;;;;5095898;28;20438;-75
2021/03/15 03:50:33;;;;;;;7.97;1.98;;;14.10;56.90;;;;;;5095573;28;20105;-74
2021/03/15 03:53:46;;;;;;;8.88;2.33;;;14.10;56.80;;;;;;5095498;28;20044;-76
2021/03/15 03:56:14;;;;;;;12.75;2.70;;;14.10;56.80;;;;;;4993684;28;20050;-74
2021/03/15 03:58:46;;;;;;;9.55;2.35;;;14.10;56.80;;;;;;4993643;28;20169;-75
2021/03/15 04:01:14;;;;;;;8.65;1.95;;;14.10;56.80;;;;;;5046172;28;20060;-75
2021/03/15 04:03:44;;;;;;;7.93;2.08;;;14.10;56.80;;;;;;5095879;28;20039;-76
2021/03/15 04:06:13;;;;;;;8.07;2.00;;;14.10;56.80;;;;;;5095017;28;20036;-75
2021/03/15 04:08:53;;;;;;;7.38;1.98;;;14.10;56.80;;;;;;5095623;28;20036;-75
2021/03/15 04:11:20;;;;;;;11.13;1.90;;;14.10;56.70;;;;;;5095198;28;20443;-76
2021/03/15 04:13:51;;;;;;;9.27;1.80;;;14.10;56.80;;;;;;5096079;28;20765;-76
2021/03/15 04:16:18;;;;;;;11.77;2.22;;;14.10;56.80;;;;;;5094893;28;20044;-75
2021/03/15 04:18:51;;;;;;;11.68;1.88;;;14.00;56.70;;;;;;5094824;28;20040;-75
2021/03/15 04:21:22;;;;;;;12.75;2.60;;;14.10;56.70;;;;;;5095365;28;20046;-76
2021/03/15 04:23:49;;;;;;;7.70;2.08;;;14.10;56.70;;;;;;5095196;28;20118;-76
2021/03/15 04:26:15;;;;;;;9.73;1.90;;;14.10;56.60;;;;;;5076914;28;20391;-75
2021/03/15 04:28:43;;;;;;;8.52;1.85;;;14.10;56.80;;;;;;5094913;28;20050;-76
2021/03/15 04:31:10;;;;;;;12.68;2.70;;;14.10;56.70;;;;;;5094664;28;20040;-76
2021/03/15 04:33:37;;;;;;;8.38;1.58;;;14.10;56.50;;;;;;5095281;28;20104;-77
2021/03/15 04:36:05;;;;;;;8.35;1.83;;;14.00;56.40;;;;;;5094927;28;20043;-74
2021/03/15 04:38:32;;;;;;;10.98;2.50;;;14.10;56.50;;;;;;5095201;28;20045;-76
2021/03/15 04:40:58;;;;;;;12.20;2.33;;;14.00;56.50;;;;;;5094731;28;20474;-77
2021/03/15 04:43:25;;;;;;;13.77;2.75;;;14.00;56.40;;;;;;5077358;28;20046;-75
2021/03/15 04:45:51;;;;;;;8.32;1.60;;;14.00;56.40;;;;;;5094847;28;20040;-75
2021/03/15 04:48:23;;;;;;;10.20;1.85;;;14.00;56.40;;;;;;5098371;28;20036;-77
2021/03/15 04:50:54;;;;;;;8.00;1.85;;;14.00;56.40;;;;;;5098357;28;20028;-76
2021/03/15 04:53:20;;;;;;;9.02;2.47;;;14.00;56.30;;;;;;5099187;28;20487;-75
2021/03/15 04:55:46;;;;;;;10.05;2.38;;;14.00;56.20;;;;;;5098671;28;20040;-78
2021/03/15 04:58:16;;;;;;;11.02;2.00;;;14.00;56.20;;;;;;5099011;28;20347;-75
2021/03/15 05:00:46;;;;;;;9.10;2.13;;;14.00;56.20;;;;;;5098573;28;20360;-78
2021/03/15 05:03:15;;;;;;;17.23;2.67;;;14.00;56.10;;;;;;5098687;28;20062;-76
2021/03/15 05:05:43;;;;;;;8.25;1.98;;;14.00;56.20;;;;;;5098547;28;20039;-78
2021/03/15 05:08:12;;;;;;;13.55;2.20;;;13.90;56.10;;;;;;5098139;28;20064;-75
2021/03/15 05:10:42;;;;;;;13.75;2.40;;;13.90;56.10;;;;;;5098398;28;20115;-75
2021/03/15 05:13:11;;;;;;;7.80;1.83;;;13.90;56.00;;;;;;5098867;28;20101;-75
2021/03/15 05:15:38;;;;;;;8.48;1.95;;;13.90;56.00;;;;;;5098405;28;20456;-75
2021/03/15 05:18:10;;;;;;;12.50;2.58;;;13.90;56.00;;;;;;5096309;28;20425;-75
2021/03/15 05:20:37;;;;;;;12.15;2.42;;;13.90;56.10;;;;;;5097514;28;20426;-74
2021/03/15 05:23:07;;;;;;;10.00;2.25;;;13.90;56.00;;;;;;5096994;28;20040;-75
2021/03/15 05:25:34;;;;;;;12.93;2.25;;;13.90;56.00;;;;;;5097645;28;20077;-75
2021/03/15 05:28:01;;;;;;;8.90;1.80;;;13.90;56.10;;;;;;5096586;28;20036;-75
2021/03/15 05:30:29;;;;;;;10.95;3.08;;;13.90;55.90;;;;;;5098652;28;20050;-75
2021/03/15 05:32:55;;;;;;;10.35;2.60;;;13.90;55.70;;;;;;5098139;28;20058;-76
2021/03/15 05:35:24;;;;;;;7.82;2.10;;;13.90;55.50;;;;;;5097939;28;20039;-75
2021/03/15 05:37:50;;;;;;;9.68;2.33;;;13.90;55.60;;;;;;5097883;28;20092;-74
2021/03/15 05:40:21;;;;;;;13.52;2.65;;;13.90;55.70;;;;;;5097697;28;20039;-73
2021/03/15 05:42:58;;;;;;;9.10;2.00;;;13.90;55.80;;;;;;5098141;28;20450;-75
2021/03/15 05:45:32;;;;;;;11.00;2.75;;;13.90;55.80;;;;;;5098207;28;20059;-77
2021/03/15 05:48:19;;;;;;;14.38;2.58;;;13.90;55.80;;;;;;5113329;28;20118;-80
2021/03/15 05:51:04;;;;;;;13.63;2.88;;;14.00;56.30;;;;;;5118782;28;20077;-77
2021/03/15 05:54:02;;;;;;;11.63;2.88;;;14.10;56.80;;;;;;5118406;28;20051;-75
2021/03/15 05:57:22;;;;;;;11.88;2.90;;;14.10;57.50;;;;;;5097245;28;20062;-79
2021/03/15 06:00:02;;;;;;;12.95;2.38;;;14.20;57.90;;;;;;4994598;28;20380;-77
2021/03/15 06:03:09;;;;;;;9.55;1.80;;;14.30;57.50;;;;;;5069408;28;20200;-76
2021/03/15 06:05:36;;;;;;;12.65;2.53;;;14.60;58.40;;;;;;5078796;28;20032;-76
2021/03/15 06:08:22;;;;;;;13.75;2.83;;;14.80;58.00;;;;;;5098397;28;20411;-79
2021/03/15 06:11:01;;;;;;;8.73;2.10;;;15.00;58.30;;;;;;5079175;28;20506;-75
2021/03/15 06:13:28;;;;;;;14.57;2.67;;;15.20;57.90;;;;;;5097050;28;20032;-75
2021/03/15 06:15:54;;;;;;;10.65;2.05;;;15.40;57.60;;;;;;5097622;28;20108;-75
2021/03/15 06:18:22;;;;;;;8.15;2.08;;;15.60;57.70;;;;;;5097142;28;20110;-77
2021/03/15 06:20:49;;;;;;;10.73;2.33;;;15.80;57.70;;;;;;5096192;28;20060;-76
2021/03/15 06:23:16;;;;;;;10.13;2.08;;;15.90;58.20;;;;;;5096846;28;20040;-76
2021/03/15 06:25:43;;;;;;;10.10;2.10;;;16.00;57.40;;;;;;5097101;28;20373;-76
2021/03/15 06:28:11;;;;;;;10.82;2.08;;;16.10;57.40;;;;;;5097343;28;20040;-76
2021/03/15 06:30:37;;;;;;;9.77;2.05;;;16.20;57.40;;;;;;5096850;28;20118;-75
2021/03/15 06:33:04;;;;;;;9.88;2.53;;;16.30;57.30;;;;;;5096918;28;20058;-76
2021/03/15 06:35:57;;;;;;;9.57;1.70;;;16.30;57.20;;;;;;5096963;28;20135;-76
2021/03/15 06:38:24;;;;;;;11.73;2.42;;;16.40;57.40;;;;;;5088516;28;20039;-76
2021/03/15 06:40:51;;;;;;;9.25;2.55;;;16.50;57.10;;;;;;5097246;28;20127;-77
2021/03/15 06:43:20;;;;;;;10.13;2.05;;;16.50;57.40;;;;;;5096679;28;20040;-75
2021/03/15 06:45:51;;;;;;;9.05;1.70;;;16.60;57.30;;;;;;5096398;28;20439;-74
2021/03/15 06:48:18;;;;;;;7.30;1.58;;;16.60;57.10;;;;;;5095756;28;20048;-74
2021/03/15 06:50:46;;;;;;;8.25;1.75;;;16.70;56.90;;;;;;5096531;28;20066;-75
2021/03/15 06:53:12;;;;;;;7.97;2.13;;;16.80;56.80;;;;;;5096299;28;20052;-77
2021/03/15 06:55:40;;;;;;;14.48;2.30;;;16.80;56.40;;;;;;5096488;28;20047;-74
2021/03/15 06:58:19;;;;;;;8.73;1.88;;;16.90;56.30;;;;;;5096609;28;20047;-74
2021/03/15 07:01:06;;;;;;;8.52;2.00;;;17.00;56.30;;;;;;5085150;28;20071;-75
2021/03/15 07:03:32;;;;;;;10.00;1.85;;;17.10;56.10;;;;;;5088534;28;20040;-73
2021/03/15 07:05:59;;;;;;;11.90;2.10;;;17.20;56.50;;;;;;5095971;28;20040;-73
2021/03/15 07:08:25;;;;;;;9.38;1.63;;;17.20;55.70;;;;;;5096693;28;20063;-74
2021/03/15 07:10:55;;;;;;;11.55;2.40;;;17.30;55.50;;;;;;5092239;28;20346;-76
2021/03/15 07:13:25;;;;;;;9.40;1.75;;;17.20;55.20;;;;;;5088570;28;20044;-78
2021/03/15 07:15:55;;;;;;;15.10;2.25;;;17.30;55.10;;;;;;5095794;28;20464;-76
2021/03/15 07:18:25;;;;;;;15.70;2.42;;;17.30;55.10;;;;;;5069991;28;20060;-83
2021/03/15 07:25:22;;;;;;;7.57;2.17;;;17.30;55.50;;;;;;4994984;28;20037;-84
2021/03/15 07:29:18;;;;;;;11.93;1.90;;;17.40;55.60;;;;;;4990510;28;20043;-83
2021/03/15 07:32:58;;;;;;;11.27;2.17;;;17.40;55.40;;;;;;4975093;28;20050;-84
2021/03/15 07:36:29;;;;;;;13.13;2.47;;;17.50;55.10;;;;;;4958338;28;20050;-84
2021/03/15 07:39:08;;;;;;;9.43;2.00;;;17.60;54.80;;;;;;5047413;28;20055;-83
2021/03/15 07:41:38;;;;;;;10.55;1.90;;;17.60;54.80;;;;;;5047035;28;20612;-84
2021/03/15 07:44:18;;;;;;;9.90;2.25;;;17.60;54.60;;;;;;5070909;28;20024;-82
2021/03/15 07:46:48;;;;;;;10.32;2.20;;;17.70;54.80;;;;;;5071171;28;20524;-80
2021/03/15 07:49:26;;;;;;;14.93;2.85;;;17.60;54.50;;;;;;5059707;28;20431;-81
2021/03/15 07:51:53;;;;;;;16.25;2.67;;;17.70;54.50;;;;;;5058078;28;20060;-81
2021/03/15 07:54:49;;;;;;;19.05;2.67;;;17.70;54.50;;;;;;5049955;28;20039;-79
2021/03/15 07:57:27;;;;;;;13.30;2.60;;;17.70;54.50;;;;;;5085374;28;20117;-80
2021/03/15 07:59:59;;;;;;;13.02;2.70;;;17.80;54.00;;;;;;5072611;28;20051;-80
2021/03/15 08:02:30;;;;;;;11.02;2.05;;;17.80;54.30;;;;;;5094779;28;20046;-80
2021/03/15 08:04:58;;;;;;;14.35;2.28;;;17.90;54.30;;;;;;5066243;28;20089;-80
2021/03/15 08:07:33;;;;;;;13.70;2.67;;;17.90;53.90;;;;;;5065325;28;20036;-89
2021/03/15 08:10:12;;;;;;;16.70;2.65;;;17.90;54.20;;;;;;5060587;28;20047;-81
2021/03/15 08:12:44;;;;;;;12.02;2.40;;;18.00;54.10;;;;;;5077857;28;20115;-81
2021/03/15 08:15:13;;;;;;;15.77;2.70;;;18.00;54.00;;;;;;5071847;28;20032;-81
2021/03/15 08:17:44;;;;;;;10.30;2.53;;;18.10;54.00;;;;;;5076777;28;20032;-81
2021/03/15 08:20:15;;;;;;;14.60;2.53;;;18.10;53.80;;;;;;5073670;28;20068;-81
2021/03/15 08:22:47;;;;;;;11.63;2.42;;;18.20;53.80;;;;;;5087570;28;20426;-81
2021/03/15 08:25:14;;;;;;;13.43;2.50;;;18.20;53.70;;;;;;5069619;28;20357;-82
2021/03/15 08:27:53;;;;;;;12.20;2.92;;;18.30;53.70;;;;;;5065347;28;20051;-81
2021/03/15 08:30:34;;;;;;;8.65;3.05;;;18.20;53.70;;;;;;5044392;28;20040;-81
2021/03/15 08:33:01;;;;;;;28.05;2.70;;;18.30;53.80;;;;;;5054876;28;20132;-81
2021/03/15 08:35:30;;;;;;;11.38;1.90;;;18.30;53.80;;;;;;5060633;28;20043;-81
2021/03/15 08:38:05;;;;;;;14.65;3.00;;;18.20;53.60;;;;;;5060224;28;20365;-82
2021/03/15 08:40:40;;;;;;;9.52;2.38;;;18.20;53.50;;;;;;5076947;28;20040;-81
2021/03/15 08:43:23;;;;;;;10.48;2.45;;;18.20;53.40;;;;;;5077488;28;20165;-82
2021/03/15 08:46:47;;;;;;;8.52;1.77;;;18.20;53.50;;;;;;5094557;28;20043;-81
2021/03/15 08:49:30;;;;;;;8.35;2.10;;;18.20;53.50;;;;;;5035535;28;20045;-81
2021/03/15 08:52:06;;;;;;;11.07;2.63;;;18.10;53.60;;;;;;5094368;28;20469;-81
2021/03/15 08:54:40;;;;;;;17.98;3.30;;;18.10;53.50;;;;;;5052161;28;20144;-79
2021/03/15 08:57:34;;;;;;;12.43;2.60;;;18.10;53.10;;;;;;5035562;28;20053;-80
2021/03/15 09:00:20;;;;;;;10.57;2.88;;;18.00;53.60;;;;;;5005864;28;20407;-82
2021/03/15 09:02:48;;;;;;;10.77;2.47;;;17.90;53.70;;;;;;5005088;28;20055;-79
2021/03/15 09:05:27;;;;;;;11.43;2.10;;;17.90;53.80;;;;;;5049352;28;20109;-80
2021/03/15 09:08:00;;;;;;;10.60;2.58;;;17.90;53.60;;;;;;5052953;28;20355;-79
2021/03/15 09:10:35;;;;;;;8.85;2.13;;;17.90;53.70;;;;;;5036559;28;20374;-81
2021/03/15 09:13:16;;;;;;;12.93;2.50;;;17.80;53.60;;;;;;5035366;28;20029;-80
2021/03/15 09:15:56;;;;;;;12.40;2.35;;;17.90;53.60;;;;;;5036058;28;20041;-81
2021/03/15 09:18:37;;;;;;;9.10;2.08;;;17.90;53.50;;;;;;5035698;28;20094;-81
2021/03/15 09:21:25;;;;;;;12.73;2.55;;;17.90;53.30;;;;;;5036086;28;20041;-80
2021/03/15 09:24:43;;;;;;;10.00;2.45;;;17.90;53.10;;;;;;5014442;28;20045;-81
2021/03/15 09:27:40;;;;;;;10.48;2.20;;;18.00;53.40;;;;;;5051806;28;20052;-81
2021/03/15 09:30:19;;;;;;;10.25;2.33;;;18.00;53.20;;;;;;5072276;28;20047;-81
2021/03/15 09:33:05;;;;;;;15.45;3.33;;;17.90;53.40;;;;;;5091061;28;20067;-78
2021/03/15 09:35:37;;;;;;;12.63;2.65;;;18.00;53.40;;;;;;5101449;28;20032;-77
2021/03/15 09:38:11;;;;;;;15.32;2.83;;;18.10;52.90;;;;;;5109512;28;20075;-86
2021/03/15 09:40:50;;;;;;;15.13;3.47;;;18.00;52.70;;;;;;5097430;28;20435;-80
2021/03/15 09:43:49;;;;;;;16.40;2.47;;;18.00;52.80;;;;;;5079963;28;20035;-79
2021/03/15 09:46:15;;;;;;;10.55;2.40;;;17.90;52.80;;;;;;5068416;28;20443;-80
2021/03/15 09:48:44;;;;;;;13.95;2.83;;;17.90;52.90;;;;;;5079943;28;20081;-81
2021/03/15 09:51:10;;;;;;;15.60;3.83;;;17.80;52.90;;;;;;5082892;28;20181;-81
2021/03/15 09:53:36;;;;;;;28.83;16.13;;;17.80;52.90;;;;;;5099288;28;20066;-80
2021/03/15 09:56:06;;;;;;;24.45;11.85;;;17.70;54.30;;;;;;5061775;28;20040;-81
2021/03/15 09:58:32;;;;;;;15.65;8.40;;;17.70;54.60;;;;;;5079870;28;20024;-80
2021/03/15 10:00:58;;;;;;;22.75;8.85;;;17.70;54.60;;;;;;5097368;28;20358;-78
2021/03/15 10:03:26;;;;;;;22.00;7.65;;;17.60;55.00;;;;;;5097238;28;20036;-77
2021/03/15 10:05:56;;;;;;;27.17;9.27;;;17.50;54.90;;;;;;5097657;28;20059;-78
2021/03/15 10:08:23;;;;;;;23.23;6.60;;;17.50;53.90;;;;;;5076817;28;20040;-77
2021/03/15 10:10:50;;;;;;;22.20;6.18;;;17.40;53.10;;;;;;5086403;28;20046;-76
2021/03/15 10:13:15;;;;;;;20.13;4.90;;;17.30;52.10;;;;;;5096466;28;20052;-79
2021/03/15 10:15:42;;;;;;;21.95;4.72;;;17.20;52.00;;;;;;5097824;28;20104;-78
2021/03/15 10:18:08;;;;;;;39.45;5.20;;;17.00;51.60;;;;;;5098385;28;20064;-78
2021/03/15 10:20:38;;;;;;;15.18;4.18;;;16.90;52.00;;;;;;5095160;28;20042;-78
2021/03/15 10:23:13;;;;;;;13.43;4.22;;;16.80;52.70;;;;;;5096402;28;20108;-82
2021/03/15 10:25:54;;;;;;;14.82;4.10;;;16.80;52.60;;;;;;5101080;28;20054;-84
2021/03/15 10:28:39;;;;;;;18.60;3.58;;;16.80;53.40;;;;;;5074911;28;20455;-88
2021/03/15 10:31:08;;;;;;;14.45;3.75;;;16.90;53.00;;;;;;5095238;28;20048;-80
2021/03/15 10:33:51;;;;;;;12.48;3.17;;;17.00;53.30;;;;;;5078171;28;20024;-77
2021/03/15 10:36:27;;;;;;;11.57;3.33;;;17.10;54.00;;;;;;5111137;28;20043;-79
2021/03/15 10:38:55;;;;;;;14.32;3.33;;;17.30;54.20;;;;;;5100438;28;20040;-82
2021/03/15 10:41:21;;;;;;;14.77;3.83;;;17.40;54.30;;;;;;5094084;28;20443;-80
2021/03/15 10:43:48;;;;;;;14.50;4.00;;;17.50;54.40;;;;;;5096561;28;20044;-80
2021/03/15 10:46:21;;;;;;;10.63;3.17;;;17.60;54.60;;;;;;5095431;28;20047;-80
2021/03/15 10:48:47;;;;;;;10.73;3.30;;;17.80;55.00;;;;;;5092345;28;20332;-77
2021/03/15 10:51:13;;;;;;;14.82;3.60;;;17.80;54.80;;;;;;5096216;28;20069;-78
2021/03/15 10:53:51;;;;;;;11.05;3.40;;;17.80;54.80;;;;;;5095786;28;20101;-74
2021/03/15 10:56:22;;;;;;;11.70;3.40;;;17.90;55.10;;;;;;5094616;28;20113;-74
2021/03/15 10:58:48;;;;;;;10.15;3.22;;;18.00;55.30;;;;;;5095491;28;20051;-76
2021/03/15 11:01:20;;;;;;;16.60;3.08;;;18.00;55.40;;;;;;5095733;28;20048;-77
2021/03/15 11:03:48;;;;;;;16.38;3.25;;;18.00;55.10;;;;;;5096020;28;20069;-77
2021/03/15 11:06:17;;;;;;;15.52;3.17;;;17.90;54.50;;;;;;5095049;28;20052;-76
2021/03/15 11:08:53;;;;;;;10.48;3.00;;;17.90;54.70;;;;;;5095802;28;20062;-75
2021/03/15 11:11:22;;;;;;;13.07;2.83;;;17.80;54.60;;;;;;5095833;28;20036;-75
2021/03/15 11:21:32;;;;;;;9.02;2.58;;;17.70;54.90;;;;;;5081672;28;20168;-76
2021/03/15 11:24:26;;;;;;;9.07;2.88;;;17.70;55.10;;;;;;5049704;28;20107;-76
2021/03/15 11:26:54;;;;;;;8.50;2.83;;;17.70;55.20;;;;;;5087543;28;20346;-76
2021/03/15 11:29:37;;;;;;;13.80;3.05;;;17.70;55.30;;;;;;5095832;28;20346;-78
2021/03/15 11:32:13;;;;;;;12.45;3.38;;;17.70;55.20;;;;;;5077600;28;20069;-76
2021/03/15 11:34:52;;;;;;;9.80;2.30;;;17.70;55.20;;;;;;5095564;28;20036;-88
2021/03/15 11:37:28;;;;;;;7.75;2.65;;;17.80;55.30;;;;;;5094852;28;20032;-77
2021/03/15 11:39:55;;;;;;;11.18;2.72;;;17.80;55.10;;;;;;5076513;28;20041;-76
2021/03/15 11:42:30;;;;;;;12.23;2.78;;;17.90;55.20;;;;;;5094417;28;20044;-77
2021/03/15 11:44:57;;;;;;;12.57;3.67;;;17.90;55.20;;;;;;5095767;28;20415;-74
2021/03/15 11:47:22;;;;;;;9.60;2.65;;;17.80;55.10;;;;;;5094948;28;20489;-76
2021/03/15 11:49:48;;;;;;;10.45;2.25;;;17.90;55.20;;;;;;5095515;28;20063;-77
2021/03/15 11:52:27;;;;;;;11.40;2.50;;;17.90;55.20;;;;;;5095173;28;20044;-76
2021/03/15 11:54:54;;;;;;;9.10;2.65;;;17.90;55.20;;;;;;5095278;28;20043;-75
2021/03/15 11:57:20;;;;;;;10.13;2.85;;;17.80;55.10;;;;;;5075072;28;20054;-77
2021/03/15 11:59:46;;;;;;;11.43;3.30;;;17.90;55.30;;;;;;5095049;28;20040;-77
2021/03/15 12:02:12;;;;;;;11.32;2.50;;;17.80;55.30;;;;;;5094291;28;20451;-78
2021/03/15 12:04:40;;;;;;;12.18;3.15;;;17.80;55.40;;;;;;5076073;28;20107;-76
2021/03/15 12:07:12;;;;;;;11.38;2.92;;;17.80;55.20;;;;;;5093392;28;20124;-78
2021/03/15 12:09:41;;;;;;;11.07;2.95;;;17.90;55.20;;;;;;5093718;28;20040;-76
2021/03/15 12:12:10;;;;;;;11.55;2.65;;;17.90;55.20;;;;;;5075853;28;20111;-77
2021/03/15 13:23:24;;;;;;;13.50;3.13;;;18.10;54.50;;;;;;4881819;29;20121;-77
2021/03/15 13:25:56;;;;;;;11.65;2.75;;;18.10;54.60;;;;;;4882570;29;20041;-77
2021/03/15 13:28:31;;;;;;;12.25;2.75;;;18.10;54.60;;;;;;4882819;29;20437;-77
2021/03/15 13:31:38;;;;;;;11.98;2.40;;;18.10;54.70;;;;;;4867153;29;20117;-78
2021/03/15 13:34:03;;;;;;;12.63;3.10;;;18.10;54.70;;;;;;4883893;29;20433;-78
2021/03/15 13:36:29;;;;;;;15.98;2.88;;;18.10;54.90;;;;;;4883567;29;20112;-75
2021/03/15 13:38:55;;;;;;;12.80;2.58;;;18.10;54.90;;;;;;4881880;29;20049;-78
2021/03/15 13:41:20;;;;;;;9.95;2.50;;;18.10;54.90;;;;;;4892965;29;20124;-80
2021/03/15 13:43:52;;;;;;;13.63;3.20;;;18.20;55.20;;;;;;4867848;29;20056;-77
2021/03/15 13:46:18;;;;;;;14.40;2.67;;;18.20;55.40;;;;;;4883574;29;20041;-78
2021/03/15 13:48:47;;;;;;;12.50;3.50;;;18.20;55.30;;;;;;4883808;29;20118;-78
2021/03/15 13:51:34;;;;;;;15.77;3.33;;;18.20;55.50;;;;;;4883818;29;20041;-81
2021/03/15 13:54:16;;;;;;;12.45;3.10;;;18.30;55.50;;;;;;4881978;29;20073;-81
2021/03/15 13:56:42;;;;;;;11.02;2.88;;;18.30;55.40;;;;;;4866358;29;20112;-81
2021/03/15 13:59:08;;;;;;;15.25;2.55;;;18.30;55.40;;;;;;4883078;29;20037;-79
2021/03/15 14:01:34;;;;;;;11.77;2.90;;;18.30;55.50;;;;;;4882732;29;20089;-78
2021/03/15 14:04:02;;;;;;;7.85;2.45;;;18.40;55.60;;;;;;4883106;29;20037;-78
2021/03/15 14:06:29;;;;;;;15.73;2.72;;;18.40;55.70;;;;;;4882859;29;20345;-81
2021/03/15 14:08:55;;;;;;;12.48;2.60;;;18.40;55.90;;;;;;4882945;29;20049;-81
2021/03/15 14:11:22;;;;;;;12.10;3.25;;;18.40;55.80;;;;;;4883180;29;20105;-78
2021/03/15 14:13:47;;;;;;;11.00;3.03;;;18.40;55.90;;;;;;4882900;29;20045;-77
2021/03/15 14:16:13;;;;;;;8.65;2.22;;;18.40;56.00;;;;;;4881687;29;20072;-81
2021/03/15 14:18:47;;;;;;;12.50;2.80;;;18.30;56.10;;;;;;4882616;29;20128;-78
2021/03/15 14:21:13;;;;;;;10.95;2.97;;;18.30;56.00;;;;;;4873176;29;20045;-80
2021/03/15 14:23:47;;;;;;;13.45;3.00;;;18.30;55.90;;;;;;4901523;29;20041;-78
2021/03/15 14:26:14;;;;;;;11.27;3.13;;;18.30;56.10;;;;;;4884504;29;20504;-78